Malacca — V7WP2 — position and weather

sailwx.info

Track history (hours):
 
Tides and Currents Weather Stations Pressure Air Temp Water Temp Dewpoint Dewpoint Depression Visibility Wind Speed Wind Dir Waves Ship Positions

Malacca

Last reported at 2018-Jan-09 05:52 UTC. Time now 2018-Jan-19 02:07 UTC.
Position N 31°02' E 122°17'.
Warning: this ship's position is 9 days out of date.

Length 294 m; draft 8.7 m.

Type: Cargo ship. MMSI: 538004358.

Date/timePositionNaut miles runAvg speedWind from/ knotsBaromVisibWave heightAir tempDewpointWater temp
2018-Jan-09 05:52N 31°02' E 122°17'610.7
2018-Jan-09 05:19N 31°03' E 122°10'410.5
2018-Jan-09 04:58N 31°04' E 122°06'4 7.6
2018-Jan-09 04:25N 31°05' E 122°01'3 7.9
2018-Jan-09 04:00N 31°06' E 121°57'612.0
2018-Jan-09 03:29N 31°10' E 121°51'49 6.9
2018-Jan-08 20:24N 31°42' E 121°09'0 0.0
2018-Jan-08 20:00N 31°42' E 121°09'0 0.1
2018-Jan-08 19:27N 31°42' E 121°09'0 0.0
2018-Jan-08 18:57N 31°42' E 121°09'0 0.0
2018-Jan-08 18:27N 31°42' E 121°09'0 0.0
2018-Jan-08 18:00N 31°42' E 121°09'0 0.0
2018-Jan-08 17:21N 31°42' E 121°09'0 0.0
2018-Jan-08 16:54N 31°42' E 121°09'0 0.0
2018-Jan-08 16:27N 31°42' E 121°09'0 0.0
2018-Jan-08 15:51N 31°42' E 121°09'0 0.0
2018-Jan-08 15:27N 31°42' E 121°09'0 0.1
2018-Jan-08 14:57N 31°42' E 121°09'0 0.1
2018-Jan-08 14:27N 31°42' E 121°09'0 0.0
2018-Jan-08 13:57N 31°42' E 121°09'0 0.0
2018-Jan-08 13:30N 31°42' E 121°09'0 0.4
2018-Jan-08 12:57N 31°43' E 121°09'1 2.5
2018-Jan-08 12:31N 31°43' E 121°08'3611.7
2018-Jan-08 09:26N 32°01' E 120°32'  
Track history (hours):
 
Tides and Currents Weather Stations Pressure Air Temp Water Temp Dewpoint Dewpoint Depression Visibility Wind Speed Wind Dir Waves Ship Positions

Malacca

Last reported at 2018-Jan-09 05:52 UTC. Time now 2018-Jan-19 02:07 UTC.
Position N 31°02' E 122°17'.
Warning: this ship's position is 9 days out of date.

Length 294 m; draft 8.7 m.

Type: Cargo ship. MMSI: 538004358.

Date/timePositionNaut miles runAvg speedWind from/ knotsBaromVisibWave heightAir tempDewpointWater temp
2018-Jan-09 05:52N 31°02' E 122°17'610.7
2018-Jan-09 05:19N 31°03' E 122°10'410.5
2018-Jan-09 04:58N 31°04' E 122°06'4 7.6
2018-Jan-09 04:25N 31°05' E 122°01'3 7.9
2018-Jan-09 04:00N 31°06' E 121°57'612.0
2018-Jan-09 03:29N 31°10' E 121°51'49 6.9
2018-Jan-08 20:24N 31°42' E 121°09'0 0.0
2018-Jan-08 20:00N 31°42' E 121°09'0 0.1
2018-Jan-08 19:27N 31°42' E 121°09'0 0.0
2018-Jan-08 18:57N 31°42' E 121°09'0 0.0
2018-Jan-08 18:27N 31°42' E 121°09'0 0.0
2018-Jan-08 18:00N 31°42' E 121°09'0 0.0
2018-Jan-08 17:21N 31°42' E 121°09'0 0.0
2018-Jan-08 16:54N 31°42' E 121°09'0 0.0
2018-Jan-08 16:27N 31°42' E 121°09'0 0.0
2018-Jan-08 15:51N 31°42' E 121°09'0 0.0
2018-Jan-08 15:27N 31°42' E 121°09'0 0.1
2018-Jan-08 14:57N 31°42' E 121°09'0 0.1
2018-Jan-08 14:27N 31°42' E 121°09'0 0.0
2018-Jan-08 13:57N 31°42' E 121°09'0 0.0
2018-Jan-08 13:30N 31°42' E 121°09'0 0.4
2018-Jan-08 12:57N 31°43' E 121°09'1 2.5
2018-Jan-08 12:31N 31°43' E 121°08'3611.7
2018-Jan-08 09:26N 32°01' E 120°32'  

Dump ship's entire track history